createdAt,value
2023-03-18T00:00:08.495Z,79.77
2023-03-18T00:01:08.459Z,79.05
2023-03-18T00:02:08.435Z,79.05
2023-03-18T00:03:08.406Z,78.96
2023-03-18T00:04:08.548Z,78.85
2023-03-18T00:05:08.352Z,79.05
2023-03-18T00:06:08.344Z,78.78
2023-03-18T00:07:08.313Z,78.78
2023-03-18T00:08:08.265Z,78.89
2023-03-18T00:09:08.233Z,79.61
2023-03-18T00:10:08.203Z,79.19
2023-03-18T00:11:08.185Z,78.82
2023-03-18T00:12:08.152Z,79.19
2023-03-18T00:13:08.117Z,79.85
2023-03-18T00:14:08.091Z,79.13
2023-03-18T00:15:08.077Z,80.05
2023-03-18T00:16:08.112Z,79.95
2023-03-18T00:17:08.039Z,79.85
2023-03-18T00:18:07.979Z,80.74
2023-03-18T00:19:07.947Z,80.12
2023-03-18T00:20:07.948Z,80.36
2023-03-18T00:21:07.893Z,80.47
2023-03-18T00:22:07.882Z,81.15
2023-03-18T00:23:07.837Z,80.36
2023-03-18T00:24:07.805Z,81.19
2023-03-18T00:25:07.782Z,81.39
2023-03-18T00:26:07.749Z,81.19
2023-03-18T00:27:07.727Z,80.09
2023-03-18T00:28:07.717Z,81.09
2023-03-18T00:29:07.668Z,80.91
2023-03-18T00:30:07.637Z,81.39
2023-03-18T00:31:07.629Z,81.39
2023-03-18T00:32:07.578Z,80.57
2023-03-18T00:33:07.714Z,80.33
2023-03-18T00:34:07.531Z,79.61
2023-03-18T00:35:07.497Z,79.30
2023-03-18T00:36:07.506Z,78.92
2023-03-18T00:37:07.440Z,79.23
2023-03-18T00:38:07.480Z,79.13
2023-03-18T00:39:07.494Z,78.82
2023-03-18T00:40:07.351Z,79.03
2023-03-18T00:41:07.323Z,78.72
2023-03-18T00:42:07.292Z,80.09
2023-03-18T00:43:07.267Z,80.36
2023-03-18T00:44:07.239Z,79.88
2023-03-18T00:45:07.209Z,79.47
2023-03-18T00:46:07.178Z,79.88
2023-03-18T00:47:07.154Z,79.16
2023-03-18T00:48:07.120Z,79.88
2023-03-18T00:49:07.093Z,79.79
2023-03-18T00:50:07.065Z,79.88
2023-03-18T00:51:07.037Z,80.19
2023-03-18T00:52:07.005Z,80.81
2023-03-18T00:53:06.983Z,79.68
2023-03-18T00:54:06.971Z,80.81
2023-03-18T00:55:06.950Z,80.19
2023-03-18T00:56:06.894Z,80.91
2023-03-18T00:57:06.871Z,80.95
2023-03-18T00:58:06.837Z,80.81
2023-03-18T00:59:06.835Z,80.23
2023-03-18T01:00:06.798Z,81.37
2023-03-18T01:01:06.808Z,81.26
2023-03-18T01:02:06.766Z,81.47
2023-03-18T01:03:06.694Z,81.26
2023-03-18T01:04:06.671Z,81.47
2023-03-18T01:05:06.641Z,82.09
2023-03-18T01:06:06.606Z,81.16
2023-03-18T01:07:06.575Z,81.02
2023-03-18T01:08:06.557Z,80.95
2023-03-18T01:09:06.525Z,81.02
2023-03-18T01:10:06.511Z,80.81
2023-03-18T01:11:06.464Z,81.26
2023-03-18T01:12:06.435Z,81.26
2023-03-18T01:13:06.411Z,80.95
2023-03-18T01:14:06.392Z,80.95
2023-03-18T01:15:06.349Z,81.37
2023-03-18T01:16:06.346Z,81.71
2023-03-18T01:17:06.292Z,81.30
2023-03-18T01:18:06.262Z,81.40
2023-03-18T01:19:06.236Z,81.23
2023-03-18T01:20:06.209Z,81.30
2023-03-18T01:21:06.193Z,81.40
2023-03-18T01:22:06.149Z,80.20
2023-03-18T01:23:06.136Z,80.89
2023-03-18T01:24:06.089Z,81.20
2023-03-18T01:25:06.062Z,79.96
2023-03-18T01:26:06.066Z,80.47
2023-03-18T01:27:06.003Z,80.06
2023-03-18T01:28:05.976Z,79.96
2023-03-18T01:29:05.946Z,80.27
2023-03-18T01:30:05.917Z,80.58
2023-03-18T01:31:05.895Z,80.79
2023-03-18T01:32:05.882Z,80.89
2023-03-18T01:33:05.873Z,80.99
2023-03-18T01:34:05.799Z,80.68
2023-03-18T01:35:05.772Z,80.79
2023-03-18T01:36:05.773Z,81.23
2023-03-18T01:37:05.763Z,80.89
2023-03-18T01:38:05.733Z,80.79
2023-03-18T01:39:05.657Z,80.79
2023-03-18T01:40:05.634Z,80.93
2023-03-18T01:41:05.641Z,81.23
2023-03-18T01:42:05.602Z,81.23
2023-03-18T01:43:05.572Z,81.54
2023-03-18T01:44:05.503Z,82.06
2023-03-18T01:45:05.485Z,81.89
2023-03-18T01:46:05.508Z,82.20
2023-03-18T01:47:05.420Z,82.10
2023-03-18T01:48:05.394Z,83.68
2023-03-18T01:49:05.362Z,82.24
2023-03-18T01:50:05.330Z,82.14
2023-03-18T01:51:05.324Z,81.79
2023-03-18T01:52:05.283Z,81.89
2023-03-18T01:53:05.253Z,81.37
2023-03-18T01:54:05.214Z,81.58
2023-03-18T01:55:05.186Z,81.48
2023-03-18T01:56:05.154Z,81.58
2023-03-18T01:57:05.130Z,82.14
2023-03-18T01:58:05.123Z,82.34
2023-03-18T01:59:05.073Z,82.65
2023-03-18T02:00:05.037Z,82.24
2023-03-18T02:01:05.078Z,81.82
2023-03-18T02:02:04.977Z,81.41
2023-03-18T02:03:04.964Z,81.41
2023-03-18T02:04:04.917Z,81.62
2023-03-18T02:05:04.891Z,81.48
2023-03-18T02:06:04.861Z,80.76
2023-03-18T02:07:04.834Z,80.76
2023-03-18T02:08:04.812Z,81.48
2023-03-18T02:09:04.776Z,81.58
2023-03-18T02:10:04.744Z,81.82
2023-03-18T02:11:04.760Z,81.51
2023-03-18T02:12:04.686Z,81.21
2023-03-18T02:13:04.659Z,81.51
2023-03-18T02:14:04.652Z,81.72
2023-03-18T02:15:04.602Z,81.41
2023-03-18T02:16:04.585Z,81.41
2023-03-18T02:17:04.555Z,81.41
2023-03-18T02:18:04.510Z,81.93
2023-03-18T02:19:04.481Z,81.41
2023-03-18T02:20:04.457Z,81.82
2023-03-18T02:21:04.435Z,82.03
2023-03-18T02:22:04.394Z,82.34
2023-03-18T02:23:04.365Z,82.75
2023-03-18T02:24:04.400Z,83.58
2023-03-18T02:25:04.305Z,83.41
2023-03-18T02:26:04.279Z,83.51
2023-03-18T02:27:04.247Z,83.48
2023-03-18T02:28:04.217Z,83.58
2023-03-18T02:29:04.190Z,83.37
2023-03-18T02:30:04.181Z,83.48
2023-03-18T02:31:04.177Z,83.48
2023-03-18T02:32:04.104Z,83.78
2023-03-18T02:33:04.104Z,84.09
2023-03-18T02:34:04.040Z,83.99
2023-03-18T02:35:04.051Z,84.61
2023-03-18T02:36:04.015Z,84.92
2023-03-18T02:37:03.951Z,85.78
2023-03-18T02:38:03.921Z,85.44
2023-03-18T02:39:03.899Z,85.89
2023-03-18T02:40:03.861Z,85.47
2023-03-18T02:41:03.839Z,85.99
2023-03-18T02:42:03.804Z,85.58
2023-03-18T02:43:03.777Z,85.78
2023-03-18T02:44:03.743Z,85.17
2023-03-18T02:45:03.717Z,85.47
2023-03-18T02:46:03.834Z,84.81
2023-03-18T02:47:03.664Z,83.99
2023-03-18T02:48:03.627Z,83.83
2023-03-18T02:49:03.619Z,83.48
2023-03-18T02:50:03.570Z,83.48
2023-03-18T02:51:03.541Z,82.24
2023-03-18T02:52:03.510Z,82.65
2023-03-18T02:53:03.483Z,82.48
2023-03-18T02:54:03.453Z,82.59
2023-03-18T02:55:03.426Z,82.69
2023-03-18T02:56:03.393Z,82.28
2023-03-18T02:57:03.367Z,83.72
2023-03-18T02:58:03.335Z,82.89
2023-03-18T02:59:03.333Z,82.48
2023-03-18T03:00:03.274Z,83.72
2023-03-18T03:01:03.320Z,83.41
2023-03-18T03:02:03.239Z,83.89
2023-03-18T03:03:03.300Z,82.34
2023-03-18T03:04:03.166Z,82.48
2023-03-18T03:05:03.136Z,83.83
2023-03-18T03:06:03.099Z,83.51
2023-03-18T03:07:03.075Z,84.23
2023-03-18T03:08:03.041Z,84.69
2023-03-18T03:09:03.012Z,85.21
2023-03-18T03:10:02.980Z,83.31
2023-03-18T03:11:02.961Z,83.97
2023-03-18T03:12:02.933Z,84.13
2023-03-18T03:13:02.901Z,84.55
2023-03-18T03:14:02.866Z,84.96
2023-03-18T03:15:02.859Z,84.89
2023-03-18T03:16:02.903Z,85.47
2023-03-18T03:17:02.779Z,85.06
2023-03-18T03:18:02.766Z,84.96
2023-03-18T03:19:02.722Z,85.83
2023-03-18T03:20:02.684Z,85.93
2023-03-18T03:21:02.655Z,86.76
2023-03-18T03:22:02.629Z,86.65
2023-03-18T03:23:02.601Z,85.10
2023-03-18T03:24:02.569Z,86.13
2023-03-18T03:25:02.537Z,86.24
2023-03-18T03:26:02.525Z,85.00
2023-03-18T03:27:02.513Z,85.31
2023-03-18T03:28:02.456Z,86.24
2023-03-18T03:29:02.419Z,84.48
2023-03-18T03:30:02.390Z,83.80
2023-03-18T03:31:02.461Z,86.55
2023-03-18T03:32:02.329Z,86.90
2023-03-18T03:33:02.389Z,86.34
2023-03-18T03:34:02.415Z,86.28
2023-03-18T03:35:02.241Z,86.76
2023-03-18T03:36:02.242Z,86.59
2023-03-18T03:37:02.182Z,85.86
2023-03-18T03:38:02.150Z,85.86
2023-03-18T03:39:02.130Z,86.18
2023-03-18T03:40:02.095Z,85.86
2023-03-18T03:41:02.064Z,85.86
2023-03-18T03:42:02.029Z,86.21
2023-03-18T03:43:02.021Z,86.79
2023-03-18T03:44:01.979Z,85.86
2023-03-18T03:45:01.995Z,86.83
2023-03-18T03:46:01.918Z,87.21
2023-03-18T03:47:01.883Z,87.15
2023-03-18T03:48:01.853Z,87.25
2023-03-18T03:49:01.823Z,88.18
2023-03-18T03:50:01.853Z,88.39
2023-03-18T03:51:02.089Z,88.28
2023-03-18T03:52:01.736Z,88.70
2023-03-18T03:53:01.707Z,88.28
2023-03-18T03:54:01.675Z,89.01
2023-03-18T03:55:01.659Z,89.22
2023-03-18T03:56:01.618Z,89.32
2023-03-18T03:57:01.584Z,90.14
2023-03-18T03:58:01.557Z,89.52
2023-03-18T03:59:01.524Z,90.52
2023-03-18T04:00:01.501Z,88.86
2023-03-18T04:01:01.468Z,88.31
2023-03-18T04:02:01.448Z,87.68
2023-03-18T04:03:01.482Z,87.89
2023-03-18T04:04:01.435Z,87.41
2023-03-18T04:05:01.345Z,86.13
2023-03-18T04:06:01.338Z,85.21
2023-03-18T04:07:01.289Z,86.18
2023-03-18T04:08:01.258Z,86.69
2023-03-18T04:09:01.227Z,86.49
2023-03-18T04:10:01.194Z,87.52
2023-03-18T04:11:01.166Z,88.04
2023-03-18T04:12:01.134Z,88.55
2023-03-18T04:13:01.107Z,87.83
2023-03-18T04:14:01.086Z,88.14
2023-03-18T04:15:01.050Z,88.04
2023-03-18T04:16:01.061Z,88.24
2023-03-18T04:17:00.986Z,88.34
2023-03-18T04:18:00.960Z,88.55
2023-03-18T04:19:00.926Z,88.39
2023-03-18T04:20:00.896Z,87.83
2023-03-18T04:21:00.868Z,88.28
2023-03-18T04:22:00.859Z,86.52
2023-03-18T04:23:00.812Z,85.49
2023-03-18T04:24:00.776Z,84.73
2023-03-18T04:25:00.780Z,83.65
2023-03-18T04:26:00.719Z,81.80
2023-03-18T04:27:00.690Z,80.25
2023-03-18T04:28:00.655Z,81.56
2023-03-18T04:29:00.633Z,79.80
2023-03-18T04:30:00.616Z,79.69
2023-03-18T04:31:00.636Z,79.38
2023-03-18T04:32:00.549Z,78.87
2023-03-18T04:33:00.584Z,78.87
2023-03-18T04:34:00.475Z,78.87
2023-03-18T04:35:00.448Z,78.87
2023-03-18T04:36:00.440Z,79.63
2023-03-18T04:37:00.396Z,79.42
2023-03-18T04:38:00.478Z,80.49
2023-03-18T04:39:00.336Z,80.04
2023-03-18T04:40:00.296Z,80.80
2023-03-18T04:41:00.264Z,81.21
2023-03-18T04:42:00.236Z,81.25
2023-03-18T04:43:00.210Z,81.05
2023-03-18T04:44:00.176Z,81.56
2023-03-18T04:45:00.143Z,81.81
2023-03-18T04:46:00.125Z,82.22
2023-03-18T04:47:00.182Z,82.43
2023-03-18T04:48:00.066Z,82.32
2023-03-18T04:49:00.025Z,83.87
2023-03-18T04:50:00.001Z,84.01
2023-03-18T04:50:59.976Z,84.33
2023-03-18T04:51:59.934Z,85.68
2023-03-18T04:52:59.904Z,85.74
2023-03-18T04:53:59.899Z,84.36
2023-03-18T04:54:59.845Z,85.18
2023-03-18T04:55:59.816Z,85.80
2023-03-18T04:56:59.819Z,86.32
2023-03-18T04:57:59.757Z,85.70
2023-03-18T04:58:59.724Z,85.49
2023-03-18T04:59:59.694Z,85.08
2023-03-18T05:00:59.705Z,85.53
2023-03-18T05:01:59.635Z,85.02
2023-03-18T05:02:59.620Z,84.81
2023-03-18T05:03:59.636Z,84.60
2023-03-18T05:04:59.544Z,84.08
2023-03-18T05:05:59.514Z,83.56
2023-03-18T05:06:59.483Z,83.87
2023-03-18T05:07:59.452Z,83.67
2023-03-18T05:08:59.421Z,83.61
2023-03-18T05:09:59.413Z,84.01
2023-03-18T05:10:59.362Z,83.61
2023-03-18T05:11:59.332Z,83.71
2023-03-18T05:12:59.309Z,83.95
2023-03-18T05:13:59.272Z,83.85
2023-03-18T05:14:59.245Z,83.85
2023-03-18T05:15:59.220Z,83.95
2023-03-18T05:16:59.181Z,83.85
2023-03-18T05:17:59.152Z,84.06
2023-03-18T05:18:59.120Z,84.37
2023-03-18T05:19:59.090Z,84.16
2023-03-18T05:20:59.063Z,84.58
2023-03-18T05:21:59.031Z,84.27
2023-03-18T05:22:58.998Z,85.40
2023-03-18T05:23:58.969Z,86.13
2023-03-18T05:24:58.944Z,86.96
2023-03-18T05:25:58.942Z,87.57
2023-03-18T05:26:58.932Z,87.06
2023-03-18T05:27:58.849Z,87.30
2023-03-18T05:28:58.817Z,87.62
2023-03-18T05:29:58.791Z,88.24
2023-03-18T05:30:58.760Z,88.61
2023-03-18T05:31:58.772Z,89.23
2023-03-18T05:32:58.778Z,89.44
2023-03-18T05:33:58.671Z,89.54
2023-03-18T05:34:58.641Z,88.88
2023-03-18T05:35:58.675Z,89.09
2023-03-18T05:36:58.583Z,89.09
2023-03-18T05:37:58.550Z,88.36
2023-03-18T05:38:58.515Z,87.95
2023-03-18T05:39:58.483Z,86.40
2023-03-18T05:40:58.452Z,86.81
2023-03-18T05:41:58.441Z,87.02
2023-03-18T05:42:58.393Z,86.77
2023-03-18T05:43:58.361Z,85.80
2023-03-18T05:44:58.340Z,84.77
2023-03-18T05:45:58.373Z,84.77
2023-03-18T05:46:58.272Z,84.45
2023-03-18T05:47:58.240Z,84.77
2023-03-18T05:48:58.208Z,84.66
2023-03-18T05:49:58.179Z,85.39
2023-03-18T05:50:58.166Z,84.87
2023-03-18T05:51:58.120Z,84.66
2023-03-18T05:52:58.088Z,84.66
2023-03-18T05:53:58.060Z,84.77
2023-03-18T05:54:58.031Z,84.63
2023-03-18T05:55:58.002Z,84.11
2023-03-18T05:56:57.968Z,84.63
2023-03-18T05:57:57.962Z,84.83
2023-03-18T05:58:57.910Z,84.21
2023-03-18T05:59:57.880Z,84.73
2023-03-18T06:00:57.861Z,84.73
2023-03-18T06:01:57.874Z,84.97
2023-03-18T06:02:57.825Z,85.39
2023-03-18T06:03:57.763Z,85.04
2023-03-18T06:04:57.729Z,85.49
2023-03-18T06:05:57.701Z,85.55
2023-03-18T06:06:57.670Z,85.80
2023-03-18T06:07:57.639Z,85.04
2023-03-18T06:08:57.627Z,85.91
2023-03-18T06:09:57.582Z,85.60
2023-03-18T06:10:57.555Z,85.08
2023-03-18T06:11:57.523Z,85.91
2023-03-18T06:12:57.489Z,85.80
2023-03-18T06:13:57.482Z,85.91
2023-03-18T06:14:57.432Z,85.80
2023-03-18T06:15:57.400Z,86.52
2023-03-18T06:16:57.457Z,86.28
2023-03-18T06:17:57.347Z,86.28
2023-03-18T06:18:57.311Z,86.32
2023-03-18T06:19:57.281Z,86.28
2023-03-18T06:20:57.268Z,85.86
2023-03-18T06:21:57.221Z,85.86
2023-03-18T06:22:57.195Z,86.38
2023-03-18T06:23:57.161Z,86.79
2023-03-18T06:24:57.130Z,86.73
2023-03-18T06:25:57.106Z,86.49
2023-03-18T06:26:57.070Z,86.69
2023-03-18T06:27:57.041Z,86.59
2023-03-18T06:28:57.010Z,86.79
2023-03-18T06:29:57.009Z,86.83
2023-03-18T06:30:57.003Z,86.79
2023-03-18T06:31:56.931Z,86.79
2023-03-18T06:32:56.952Z,86.90
2023-03-18T06:33:56.863Z,86.90
2023-03-18T06:34:56.832Z,86.79
2023-03-18T06:35:56.863Z,85.55
2023-03-18T06:36:56.778Z,86.13
2023-03-18T06:37:56.747Z,85.66
2023-03-18T06:38:56.723Z,85.24
2023-03-18T06:39:56.687Z,85.66
2023-03-18T06:40:56.655Z,86.24
2023-03-18T06:41:56.654Z,85.93
2023-03-18T06:42:56.592Z,85.83
2023-03-18T06:43:56.563Z,85.72
2023-03-18T06:44:56.535Z,86.86
2023-03-18T06:45:56.552Z,86.44
2023-03-18T06:46:56.473Z,86.24
2023-03-18T06:47:56.444Z,86.86
2023-03-18T06:48:56.419Z,86.76
2023-03-18T06:49:56.401Z,86.86
2023-03-18T06:50:56.354Z,87.27
2023-03-18T06:51:56.325Z,87.17
2023-03-18T06:52:56.302Z,86.82
2023-03-18T06:53:56.271Z,87.34
2023-03-18T06:54:56.237Z,86.82
2023-03-18T06:55:56.207Z,86.92
2023-03-18T06:56:56.179Z,86.88
2023-03-18T06:57:56.148Z,86.88
2023-03-18T06:58:56.118Z,87.08
2023-03-18T06:59:56.088Z,85.85
2023-03-18T07:00:56.135Z,85.44
2023-03-18T07:01:56.178Z,85.09
2023-03-18T07:02:56.004Z,84.92
2023-03-18T07:03:55.973Z,84.99
2023-03-18T07:04:55.938Z,83.85
2023-03-18T07:05:55.911Z,83.85
2023-03-18T07:06:55.885Z,83.19
2023-03-18T07:07:55.848Z,83.50
2023-03-18T07:08:55.819Z,83.61
2023-03-18T07:09:55.793Z,83.61
2023-03-18T07:10:57.709Z,83.61
2023-03-18T07:11:55.737Z,83.50
2023-03-18T07:12:55.700Z,83.26
2023-03-18T07:13:55.676Z,83.26
2023-03-18T07:14:55.643Z,83.36
2023-03-18T07:15:55.654Z,82.95
2023-03-18T07:16:55.584Z,82.74
2023-03-18T07:17:55.616Z,82.74
2023-03-18T07:18:55.526Z,82.40
2023-03-18T07:19:55.497Z,82.70
2023-03-18T07:20:55.467Z,82.60
2023-03-18T07:21:55.437Z,82.50
2023-03-18T07:22:55.416Z,82.09
2023-03-18T07:23:55.607Z,81.98
2023-03-18T07:24:55.349Z,81.98
2023-03-18T07:25:55.320Z,82.09
2023-03-18T07:26:55.294Z,82.15
2023-03-18T07:27:55.262Z,81.95
2023-03-18T07:28:55.230Z,81.23
2023-03-18T07:29:55.202Z,81.33
2023-03-18T07:30:55.194Z,80.81
2023-03-18T07:31:55.148Z,79.85
2023-03-18T07:32:55.172Z,80.16
2023-03-18T07:33:55.110Z,79.95
2023-03-18T07:34:55.056Z,79.33
2023-03-18T07:35:55.054Z,78.92
2023-03-18T07:36:54.999Z,78.30
2023-03-18T07:37:54.969Z,77.65
2023-03-18T07:38:54.948Z,77.14
2023-03-18T07:39:54.911Z,76.73
2023-03-18T07:40:54.881Z,75.56
2023-03-18T07:41:54.858Z,76.07
2023-03-18T07:42:54.829Z,75.67
2023-03-18T07:43:54.794Z,74.43
2023-03-18T07:44:54.767Z,74.12
2023-03-18T07:45:54.737Z,74.53
2023-03-18T07:46:54.707Z,74.53
2023-03-18T07:47:54.679Z,73.57
2023-03-18T07:48:54.647Z,72.75
2023-03-18T07:49:54.639Z,72.85
2023-03-18T07:50:54.589Z,72.61
2023-03-18T07:51:54.563Z,73.36
2023-03-18T07:52:54.533Z,73.33
2023-03-18T07:53:54.508Z,73.95
2023-03-18T07:54:54.476Z,72.00
2023-03-18T07:55:54.448Z,71.55
2023-03-18T07:56:54.611Z,71.45
2023-03-18T07:57:54.391Z,71.45
2023-03-18T07:58:54.366Z,71.97
2023-03-18T07:59:54.336Z,71.66
2023-03-18T08:00:54.309Z,71.45
2023-03-18T08:01:54.281Z,70.94
2023-03-18T08:02:54.244Z,70.18
2023-03-18T08:03:54.242Z,71.21
2023-03-18T08:04:54.218Z,71.11
2023-03-18T08:05:54.188Z,70.36
2023-03-18T08:06:54.136Z,70.97
2023-03-18T08:07:54.105Z,71.28
2023-03-18T08:08:54.081Z,70.05
2023-03-18T08:09:54.053Z,70.67
2023-03-18T08:10:54.020Z,69.74
2023-03-18T08:11:54.014Z,69.33
2023-03-18T08:12:54.202Z,69.92
2023-03-18T08:13:53.934Z,69.71
2023-03-18T08:14:53.905Z,69.30
2023-03-18T08:15:53.992Z,69.71
2023-03-18T08:16:53.857Z,69.37
2023-03-18T08:17:53.939Z,69.51
2023-03-18T08:18:53.792Z,69.27
2023-03-18T08:19:53.763Z,68.35
2023-03-18T08:20:53.734Z,69.17
2023-03-18T08:21:53.725Z,68.35
2023-03-18T08:22:53.679Z,68.04
2023-03-18T08:23:53.657Z,68.45
2023-03-18T08:24:53.621Z,68.96
2023-03-18T08:25:53.602Z,68.11
2023-03-18T08:26:53.563Z,68.62
2023-03-18T08:27:53.555Z,68.65
2023-03-18T08:28:53.525Z,66.67
2023-03-18T08:29:53.483Z,66.06
2023-03-18T08:30:53.455Z,66.27
2023-03-18T08:31:53.492Z,66.37
2023-03-18T08:32:53.445Z,66.37
2023-03-18T08:33:53.371Z,65.72
2023-03-18T08:34:53.341Z,65.83
2023-03-18T08:35:53.334Z,65.62
2023-03-18T08:36:53.409Z,65.59
2023-03-18T08:37:53.406Z,64.98
2023-03-18T08:38:53.228Z,63.85
2023-03-18T08:39:53.209Z,65.28
2023-03-18T08:40:53.175Z,64.13
2023-03-18T08:41:53.144Z,64.43
2023-03-18T08:42:53.119Z,62.80
2023-03-18T08:43:53.094Z,61.98
2023-03-18T08:44:53.061Z,61.16
2023-03-18T08:45:53.052Z,59.91
2023-03-18T08:46:53.016Z,60.65
2023-03-18T08:47:52.997Z,59.80
2023-03-18T08:48:52.955Z,59.73
2023-03-18T08:49:52.952Z,59.80
2023-03-18T08:50:52.903Z,59.60
2023-03-18T08:51:52.870Z,58.17
2023-03-18T08:52:52.840Z,57.86
2023-03-18T08:53:52.834Z,56.74
2023-03-18T08:54:52.792Z,55.62
2023-03-18T08:55:52.759Z,57.04
2023-03-18T08:56:52.736Z,57.73
2023-03-18T08:57:52.703Z,57.02
2023-03-18T08:58:52.678Z,56.81
2023-03-18T08:59:52.649Z,56.51
2023-03-18T09:00:52.669Z,55.69
2023-03-18T09:01:52.593Z,56.61
2023-03-18T09:02:52.567Z,56.61
2023-03-18T09:03:52.583Z,57.20
2023-03-18T09:04:52.513Z,57.20
2023-03-18T09:05:52.485Z,57.27
2023-03-18T09:06:52.475Z,56.45
2023-03-18T09:07:52.432Z,55.94
2023-03-18T09:08:52.403Z,54.72
2023-03-18T09:09:52.401Z,55.43
2023-03-18T09:10:52.366Z,56.02
2023-03-18T09:11:52.320Z,55.91
2023-03-18T09:12:52.294Z,53.16
2023-03-18T09:13:52.269Z,54.59
2023-03-18T09:14:52.241Z,54.69
2023-03-18T09:15:52.211Z,56.40
2023-03-18T09:16:52.227Z,55.69
2023-03-18T09:18:08.399Z,55.48
2023-03-18T09:18:52.129Z,55.48
2023-03-18T09:19:52.100Z,55.76
2023-03-18T09:20:52.077Z,54.85
2023-03-18T09:21:52.045Z,55.28
2023-03-18T09:22:52.041Z,54.64
2023-03-18T09:23:51.999Z,54.13
2023-03-18T09:24:51.968Z,53.83
2023-03-18T09:25:51.955Z,53.31
2023-03-18T09:26:51.910Z,52.17
2023-03-18T09:27:51.885Z,50.54
2023-03-18T09:28:51.861Z,49.93
2023-03-18T09:29:51.914Z,49.52
2023-03-18T09:30:51.888Z,49.34
2023-03-18T09:31:51.778Z,49.42
2023-03-18T09:32:51.764Z,49.01
2023-03-18T09:33:51.722Z,49.40
2023-03-18T09:34:51.694Z,49.80
2023-03-18T09:35:51.696Z,48.79
2023-03-18T09:36:51.781Z,48.99
2023-03-18T09:37:51.611Z,47.74
2023-03-18T09:38:51.595Z,48.89
2023-03-18T09:39:51.559Z,49.58
2023-03-18T09:40:51.534Z,48.18
2023-03-18T09:41:51.522Z,48.99
2023-03-18T09:42:51.477Z,47.56
2023-03-18T09:43:51.451Z,49.19
2023-03-18T09:44:51.435Z,49.29
2023-03-18T09:45:51.497Z,49.80
2023-03-18T09:46:51.537Z,50.01
2023-03-18T09:47:51.344Z,50.52
2023-03-18T09:48:51.321Z,50.72
2023-03-18T09:49:51.291Z,49.50
2023-03-18T09:50:51.264Z,49.68
2023-03-18T09:51:51.245Z,48.86
2023-03-18T09:52:51.216Z,47.85
2023-03-18T09:53:51.187Z,48.05
2023-03-18T09:54:51.173Z,49.07
2023-03-18T09:55:51.130Z,49.45
2023-03-18T09:56:51.104Z,47.82
2023-03-18T09:57:51.100Z,47.52
2023-03-18T09:58:51.053Z,48.35
2023-03-18T09:59:51.024Z,47.74
2023-03-18T10:00:51.003Z,48.76
2023-03-18T10:01:50.985Z,50.37
2023-03-18T10:02:50.948Z,50.24
2023-03-18T10:03:51.023Z,49.94
2023-03-18T10:04:50.894Z,50.06
2023-03-18T10:05:50.870Z,50.85
2023-03-18T10:06:50.856Z,49.12
2023-03-18T10:07:50.826Z,50.14
2023-03-18T10:08:50.795Z,50.34
2023-03-18T10:09:50.763Z,49.63
2023-03-18T10:10:50.734Z,49.30
2023-03-18T10:11:50.707Z,49.53
2023-03-18T10:12:50.709Z,49.30
2023-03-18T10:13:50.675Z,47.78
2023-03-18T10:14:50.630Z,46.97
2023-03-18T10:15:50.633Z,45.87
2023-03-18T10:16:50.582Z,46.98
2023-03-18T10:17:50.559Z,46.25
2023-03-18T10:18:50.524Z,46.86
2023-03-18T10:19:50.499Z,45.87
2023-03-18T10:20:50.480Z,46.89
2023-03-18T10:21:50.448Z,47.17
2023-03-18T10:22:50.428Z,46.86
2023-03-18T10:23:50.391Z,45.95
2023-03-18T10:24:50.375Z,46.05
2023-03-18T10:25:50.337Z,45.54
2023-03-18T10:26:50.314Z,46.15
2023-03-18T10:27:50.292Z,47.67
2023-03-18T10:28:50.258Z,46.94
2023-03-18T10:29:50.252Z,47.37
2023-03-18T10:30:50.262Z,47.45
2023-03-18T10:31:50.192Z,48.67
2023-03-18T10:32:50.652Z,46.72
2023-03-18T10:33:50.130Z,45.48
2023-03-18T10:34:50.105Z,46.11
2023-03-18T10:35:50.099Z,43.96
2023-03-18T10:36:50.055Z,44.99
2023-03-18T10:37:50.038Z,45.70
2023-03-18T10:38:50.001Z,45.60
2023-03-18T10:39:49.976Z,45.70
2023-03-18T10:40:49.967Z,47.33
2023-03-18T10:41:49.957Z,47.22
2023-03-18T10:42:49.903Z,46.59
2023-03-18T10:43:49.873Z,46.19
2023-03-18T10:44:49.844Z,46.90
2023-03-18T10:45:49.849Z,47.51
2023-03-18T10:46:49.963Z,46.88
2023-03-18T10:47:49.767Z,47.28
2023-03-18T10:48:49.747Z,47.49
2023-03-18T10:49:49.714Z,44.95
2023-03-18T10:50:49.705Z,44.74
2023-03-18T10:51:49.662Z,45.56
2023-03-18T10:52:49.646Z,44.24
2023-03-18T10:53:49.612Z,43.93
2023-03-18T10:54:49.586Z,44.74
2023-03-18T10:55:49.559Z,44.77
2023-03-18T10:56:49.538Z,46.78
2023-03-18T10:57:49.514Z,45.25
2023-03-18T10:58:49.482Z,44.74
2023-03-18T10:59:49.456Z,44.34
2023-03-18T11:00:49.430Z,45.05
2023-03-18T11:01:49.445Z,44.85
2023-03-18T11:02:49.743Z,44.46
2023-03-18T11:03:49.353Z,44.16
2023-03-18T11:04:49.328Z,44.56
2023-03-18T11:05:49.304Z,44.77
2023-03-18T11:06:49.278Z,45.76
2023-03-18T11:07:49.252Z,45.58
2023-03-18T11:08:49.227Z,47.08
2023-03-18T11:09:49.202Z,48.22
2023-03-18T11:10:49.175Z,46.57
2023-03-18T11:11:49.151Z,45.36
2023-03-18T11:12:49.123Z,45.15
2023-03-18T11:13:49.099Z,45.25
2023-03-18T11:14:49.070Z,45.56
2023-03-18T11:15:49.075Z,45.15
2023-03-18T11:16:49.020Z,44.44
2023-03-18T11:17:49.019Z,44.04
2023-03-18T11:18:48.972Z,45.03
2023-03-18T11:19:48.941Z,44.32
2023-03-18T11:20:48.918Z,42.90
2023-03-18T11:21:48.899Z,42.69
2023-03-18T11:22:48.867Z,42.60
2023-03-18T11:23:48.879Z,41.88
2023-03-18T11:24:48.826Z,42.29
2023-03-18T11:25:48.813Z,43.00
2023-03-18T11:26:48.764Z,42.29
2023-03-18T11:27:48.752Z,42.17
2023-03-18T11:28:48.720Z,42.07
2023-03-18T11:29:48.687Z,42.37
2023-03-18T11:30:48.673Z,42.27
2023-03-18T11:31:48.637Z,42.05
2023-03-18T11:32:48.630Z,41.85
2023-03-18T11:33:48.603Z,42.54
2023-03-18T11:34:48.560Z,42.33
2023-03-18T11:35:48.568Z,42.13
2023-03-18T11:36:48.507Z,41.93
2023-03-18T11:37:48.484Z,41.42
2023-03-18T11:38:48.457Z,42.23
2023-03-18T11:39:48.431Z,41.20
2023-03-18T11:40:48.409Z,40.69
2023-03-18T11:41:48.379Z,40.69
2023-03-18T11:42:48.355Z,39.72
2023-03-18T11:43:48.326Z,42.05
2023-03-18T11:44:48.310Z,42.66
2023-03-18T11:45:48.277Z,41.64
2023-03-18T11:46:48.305Z,42.46
2023-03-18T11:47:48.226Z,41.63
2023-03-18T11:48:48.201Z,42.23
2023-03-18T11:49:48.192Z,42.23
2023-03-18T11:50:48.152Z,40.41
2023-03-18T11:51:48.123Z,41.44
2023-03-18T11:52:48.099Z,41.42
2023-03-18T11:53:48.085Z,40.61
2023-03-18T11:54:48.050Z,40.71
2023-03-18T11:55:48.029Z,40.69
2023-03-18T11:56:48.015Z,41.50
2023-03-18T11:57:47.988Z,39.07
2023-03-18T11:58:47.953Z,38.97
2023-03-18T11:59:47.928Z,38.26
2023-03-18T12:00:47.902Z,39.07
2023-03-18T12:01:47.956Z,39.07
2023-03-18T12:02:47.854Z,39.56
2023-03-18T12:03:47.826Z,40.27
2023-03-18T12:04:47.808Z,39.28
2023-03-18T12:05:47.795Z,40.29
2023-03-18T12:06:47.757Z,41.99
2023-03-18T12:07:47.725Z,40.98
2023-03-18T12:08:47.704Z,41.89
2023-03-18T12:09:47.677Z,42.19
2023-03-18T12:10:47.656Z,40.27
2023-03-18T12:11:47.629Z,40.66
2023-03-18T12:12:47.607Z,39.76
2023-03-18T12:13:47.580Z,40.27
2023-03-18T12:14:47.555Z,39.14
2023-03-18T12:15:47.531Z,40.35
2023-03-18T12:16:47.548Z,40.15
2023-03-18T12:17:47.487Z,39.54
2023-03-18T12:18:47.457Z,39.12
2023-03-18T12:19:47.431Z,41.55
2023-03-18T12:20:47.408Z,40.33
2023-03-18T12:21:47.402Z,37.50
2023-03-18T12:22:47.359Z,38.13
2023-03-18T12:23:49.729Z,38.01
2023-03-18T12:24:47.311Z,38.13
2023-03-18T12:25:47.286Z,38.71
2023-03-18T12:26:47.262Z,39.12
2023-03-18T12:27:47.234Z,37.81
2023-03-18T12:28:47.216Z,39.42
2023-03-18T12:29:47.188Z,39.62
2023-03-18T12:30:47.168Z,38.02
2023-03-18T12:31:47.266Z,39.64
2023-03-18T12:32:47.125Z,40.57
2023-03-18T12:33:47.090Z,41.69
2023-03-18T12:34:47.065Z,39.66
2023-03-18T12:35:47.134Z,39.15
2023-03-18T12:36:47.021Z,38.04
2023-03-18T12:37:47.048Z,39.58
2023-03-18T12:38:46.973Z,39.56
2023-03-18T12:39:46.943Z,39.15
2023-03-18T12:40:46.918Z,39.17
2023-03-18T12:41:46.917Z,39.58
2023-03-18T12:42:46.875Z,39.28
2023-03-18T12:43:46.842Z,39.56
2023-03-18T12:44:46.824Z,39.26
2023-03-18T12:45:46.897Z,39.44
2023-03-18T12:46:46.776Z,39.24
2023-03-18T12:47:46.772Z,39.02
2023-03-18T12:48:46.721Z,38.01
2023-03-18T12:49:46.695Z,39.73
2023-03-18T12:50:46.698Z,39.40
2023-03-18T12:51:46.691Z,39.00